createdAt,value
2023-02-11T00:02:14.670Z,22.80
2023-02-11T00:04:44.285Z,21.42
2023-02-11T00:10:15.781Z,20.15
2023-02-11T00:13:03.604Z,22.58
2023-02-11T00:15:51.343Z,21.60
2023-02-11T00:18:39.462Z,21.10
2023-02-11T00:21:28.150Z,20.50
2023-02-11T00:24:15.762Z,19.98
2023-02-11T00:27:03.568Z,19.02
2023-02-11T00:29:53.239Z,18.88
2023-02-11T00:32:42.551Z,19.10
2023-02-11T00:35:25.307Z,19.92
2023-02-11T00:38:12.927Z,20.85
2023-02-11T00:41:00.579Z,18.50
2023-02-11T00:43:46.344Z,18.85
2023-02-11T00:46:36.487Z,18.77
2023-02-11T00:49:17.175Z,17.33
2023-02-11T00:51:45.849Z,17.27
2023-02-11T00:54:14.265Z,19.23
2023-02-11T00:56:45.206Z,18.23
2023-02-11T00:59:14.436Z,17.27
2023-02-11T01:02:04.870Z,16.80
2023-02-11T01:04:52.514Z,18.52
2023-02-11T01:07:40.203Z,18.48
2023-02-11T01:10:28.632Z,18.63
2023-02-11T01:12:59.499Z,18.08
2023-02-11T01:15:31.371Z,19.17
2023-02-11T01:18:00.361Z,16.58
2023-02-11T01:20:32.886Z,17.27
2023-02-11T01:23:20.553Z,19.17
2023-02-11T01:26:08.114Z,18.05
2023-02-11T01:28:55.691Z,16.77
2023-02-11T01:31:51.157Z,18.30
2023-02-11T01:34:19.711Z,18.83
2023-02-11T01:36:51.360Z,17.05
2023-02-11T01:39:19.753Z,19.25
2023-02-11T01:41:49.725Z,19.60
2023-02-11T01:44:38.481Z,18.98
2023-02-11T01:47:12.675Z,19.00
2023-02-11T01:49:43.336Z,19.02
2023-02-11T01:52:15.019Z,17.90
2023-02-11T01:55:06.671Z,19.90
2023-02-11T01:57:56.327Z,19.55
2023-02-11T02:00:40.366Z,18.00
2023-02-11T02:03:28.496Z,18.33
2023-02-11T02:06:17.734Z,17.38
2023-02-11T02:09:02.074Z,18.92
2023-02-11T02:11:35.385Z,20.75
2023-02-11T02:14:06.903Z,18.27
2023-02-11T02:16:36.739Z,19.30
2023-02-11T02:19:13.580Z,17.90
2023-02-11T02:21:55.226Z,17.77
2023-02-11T02:24:39.103Z,18.95
2023-02-11T02:27:19.309Z,19.08
2023-02-11T02:30:02.681Z,17.70
2023-02-11T02:33:07.946Z,17.85
2023-02-11T02:35:48.009Z,18.98
2023-02-11T02:38:34.298Z,18.60
2023-02-11T02:41:08.877Z,18.55
2023-02-11T02:43:40.705Z,17.42
2023-02-11T02:46:13.771Z,14.40
2023-02-11T02:48:43.170Z,17.75
2023-02-11T02:51:45.939Z,16.83
2023-02-11T02:54:49.237Z,18.45
2023-02-11T02:57:42.421Z,17.25
2023-02-11T03:00:33.903Z,17.83
2023-02-11T03:03:22.375Z,15.90
2023-02-11T03:06:04.824Z,17.35
2023-02-11T03:08:46.036Z,18.13
2023-02-11T03:11:20.460Z,15.02
2023-02-11T03:13:55.696Z,15.88
2023-02-11T03:16:29.420Z,18.02
2023-02-11T03:19:21.509Z,16.58
2023-02-11T03:22:23.833Z,15.40
2023-02-11T03:24:52.600Z,14.57
2023-02-11T03:27:29.666Z,15.75
2023-02-11T03:30:17.206Z,14.68
2023-02-11T03:33:08.140Z,15.90
2023-02-11T03:35:53.930Z,15.85
2023-02-11T03:38:30.990Z,16.58
2023-02-11T03:41:18.718Z,17.65
2023-02-11T03:43:57.421Z,17.08
2023-02-11T03:46:29.852Z,15.85
2023-02-11T03:49:02.891Z,16.77
2023-02-11T03:51:34.302Z,16.33
2023-02-11T03:54:04.934Z,16.02
2023-02-11T03:56:39.444Z,16.50
2023-02-11T03:59:09.183Z,16.02
2023-02-11T04:01:38.355Z,16.38
2023-02-11T04:04:06.815Z,16.38
2023-02-11T04:06:35.272Z,15.43
2023-02-11T04:09:04.641Z,16.30
2023-02-11T04:11:34.076Z,16.17
2023-02-11T04:14:02.488Z,15.98
2023-02-11T04:16:33.506Z,16.20
2023-02-11T04:19:03.287Z,17.35
2023-02-11T04:21:44.637Z,14.82
2023-02-11T04:24:37.075Z,15.63
2023-02-11T04:27:26.973Z,15.65
2023-02-11T04:30:14.913Z,16.48
2023-02-11T04:33:02.526Z,15.57
2023-02-11T04:35:37.107Z,15.93
2023-02-11T04:38:27.186Z,16.05
2023-02-11T04:41:14.833Z,15.45
2023-02-11T04:46:46.163Z,16.30
2023-02-11T04:49:24.265Z,16.40
2023-02-11T04:52:11.915Z,15.82
2023-02-11T04:54:59.495Z,16.10
2023-02-11T04:57:50.161Z,17.13
2023-02-11T05:00:37.672Z,16.38
2023-02-11T05:03:25.245Z,16.52
2023-02-11T05:05:56.282Z,16.77
2023-02-11T05:08:29.432Z,16.88
2023-02-11T05:11:03.028Z,18.17
2023-02-11T05:13:32.043Z,19.17
2023-02-11T05:16:00.813Z,17.33
2023-02-11T05:18:30.919Z,20.15
2023-02-11T05:20:59.430Z,18.92
2023-02-11T05:23:27.764Z,19.85
2023-02-11T05:25:56.180Z,20.02
2023-02-11T05:28:35.534Z,19.90
2023-02-11T05:31:23.385Z,19.77
2023-02-11T05:34:11.029Z,19.33
2023-02-11T05:36:58.709Z,18.80
2023-02-11T05:39:48.736Z,20.02
2023-02-11T05:42:36.360Z,20.52
2023-02-11T05:45:13.444Z,22.00
2023-02-11T05:48:01.006Z,21.20
2023-02-11T05:50:48.714Z,22.85
2023-02-11T05:53:38.704Z,20.73
2023-02-11T05:56:26.332Z,20.33
2023-02-11T05:59:17.087Z,20.10
2023-02-11T06:02:04.771Z,22.15
2023-02-11T06:04:39.113Z,22.48
2023-02-11T06:07:27.025Z,23.00
2023-02-11T06:10:08.424Z,21.02
2023-02-11T06:12:55.932Z,21.50
2023-02-11T06:15:40.238Z,22.60
2023-02-11T06:18:30.502Z,20.00
2023-02-11T06:21:18.118Z,23.58
2023-02-11T06:24:05.969Z,20.95
2023-02-11T06:26:53.589Z,22.77
2023-02-11T06:29:38.548Z,23.13
2023-02-11T06:32:43.287Z,23.77
2023-02-11T06:35:12.794Z,22.40
2023-02-11T06:37:44.271Z,24.83
2023-02-11T06:40:13.290Z,22.52
2023-02-11T06:42:48.084Z,23.27
2023-02-11T06:45:25.583Z,21.63
2023-02-11T06:48:13.169Z,22.00
2023-02-11T06:51:05.588Z,22.77
2023-02-11T06:53:53.127Z,22.67
2023-02-11T06:56:22.767Z,23.38
2023-02-11T06:58:56.145Z,22.77
2023-02-11T07:01:25.802Z,24.35
2023-02-11T07:03:54.844Z,21.88
2023-02-11T07:06:28.339Z,23.17
2023-02-11T07:08:58.243Z,23.05
2023-02-11T07:11:29.423Z,22.02
2023-02-11T07:14:06.247Z,24.20
2023-02-11T07:16:36.963Z,22.17
2023-02-11T07:19:08.269Z,22.85
2023-02-11T07:21:37.298Z,21.77
2023-02-11T07:24:11.207Z,22.02
2023-02-11T07:26:41.248Z,22.08
2023-02-11T07:29:10.353Z,21.35
2023-02-11T07:31:41.688Z,24.35
2023-02-11T07:34:11.563Z,23.27
2023-02-11T07:36:40.454Z,21.83
2023-02-11T07:39:09.337Z,21.20
2023-02-11T07:41:39.174Z,21.80
2023-02-11T07:44:08.330Z,22.58
2023-02-11T07:46:37.491Z,21.98
2023-02-11T07:49:06.066Z,20.67
2023-02-11T07:51:39.158Z,22.05
2023-02-11T07:54:08.237Z,21.63
2023-02-11T07:56:37.375Z,22.38
2023-02-11T07:59:07.172Z,22.13
2023-02-11T08:01:40.571Z,21.33
2023-02-11T08:04:08.894Z,20.70
2023-02-11T08:06:42.206Z,21.63
2023-02-11T08:09:17.301Z,21.95
2023-02-11T08:11:48.880Z,22.15
2023-02-11T08:14:20.621Z,21.95
2023-02-11T08:16:49.906Z,22.00
2023-02-11T08:19:18.509Z,20.90
2023-02-11T08:21:47.053Z,21.83
2023-02-11T08:24:15.827Z,22.40
2023-02-11T08:26:44.687Z,23.08
2023-02-11T08:29:14.657Z,22.85
2023-02-11T08:31:45.262Z,22.75
2023-02-11T08:34:18.156Z,22.80
2023-02-11T08:36:56.178Z,22.08
2023-02-11T08:39:32.489Z,24.42
2023-02-11T08:42:06.478Z,21.23
2023-02-11T08:44:36.244Z,22.90
2023-02-11T08:47:06.994Z,22.25
2023-02-11T08:49:36.297Z,19.77
2023-02-11T08:52:05.234Z,24.55
2023-02-11T08:54:34.880Z,22.38
2023-02-11T08:57:14.816Z,22.98
2023-02-11T08:59:42.993Z,22.50
2023-02-11T09:02:13.605Z,24.13
2023-02-11T09:04:44.274Z,23.13
2023-02-11T09:07:16.508Z,22.83
2023-02-11T09:09:46.209Z,22.85
2023-02-11T09:12:15.605Z,24.25
2023-02-11T09:14:44.964Z,25.52
2023-02-11T09:17:13.547Z,22.77
2023-02-11T09:19:52.549Z,23.83
2023-02-11T09:22:40.180Z,25.52
2023-02-11T09:25:23.906Z,23.92
2023-02-11T09:28:01.809Z,27.27
2023-02-11T09:30:49.796Z,25.20
2023-02-11T09:33:32.842Z,22.63
2023-02-11T09:36:02.738Z,24.13
2023-02-11T09:38:35.198Z,24.77
2023-02-11T09:41:32.163Z,24.90
2023-02-11T09:44:22.391Z,25.73
2023-02-11T09:47:02.717Z,25.35
2023-02-11T09:49:45.678Z,26.23
2023-02-11T09:52:29.813Z,24.88
2023-02-11T09:55:23.863Z,24.50
2023-02-11T09:57:53.976Z,24.77
2023-02-11T10:00:29.498Z,24.92
2023-02-11T10:03:33.704Z,25.60
2023-02-11T10:06:08.928Z,27.08
2023-02-11T10:08:58.052Z,25.27
2023-02-11T10:11:44.499Z,23.98
2023-02-11T10:14:13.066Z,23.05
2023-02-11T10:16:52.392Z,24.83
2023-02-11T10:19:39.170Z,30.45
2023-02-11T10:22:10.905Z,25.02
2023-02-11T10:24:43.165Z,25.45
2023-02-11T10:27:18.540Z,25.88
2023-02-11T10:29:57.001Z,31.17
2023-02-11T10:32:25.291Z,25.05
2023-02-11T10:34:59.625Z,24.13
2023-02-11T10:37:35.716Z,24.13
2023-02-11T10:40:04.210Z,23.02
2023-02-11T10:42:43.302Z,25.58
2023-02-11T10:45:17.776Z,24.53
2023-02-11T10:47:52.566Z,24.77
2023-02-11T10:50:23.184Z,30.02
2023-02-11T10:52:51.615Z,27.63
2023-02-11T10:58:01.384Z,25.45
2023-02-11T11:00:41.884Z,25.08
2023-02-11T11:03:35.585Z,24.02
2023-02-11T11:06:10.545Z,24.10
2023-02-11T11:08:49.089Z,26.15
2023-02-11T11:11:23.882Z,23.33
2023-02-11T11:13:58.049Z,24.55
2023-02-11T11:16:37.557Z,23.90
2023-02-11T11:19:08.840Z,24.70
2023-02-11T11:21:44.022Z,25.23
2023-02-11T11:24:20.798Z,32.85
2023-02-11T11:26:50.630Z,26.48
2023-02-11T11:29:26.824Z,26.38
2023-02-11T11:31:57.890Z,25.65
2023-02-11T11:34:38.222Z,26.23
2023-02-11T11:37:21.052Z,27.08
2023-02-11T11:39:53.571Z,25.67
2023-02-11T11:42:31.432Z,26.92
2023-02-11T11:45:03.941Z,25.58
2023-02-11T11:47:49.478Z,24.98
2023-02-11T11:50:23.834Z,27.65
2023-02-11T11:52:57.364Z,28.00
2023-02-11T11:55:28.200Z,26.75
2023-02-11T11:57:59.564Z,27.10
2023-02-11T12:00:32.378Z,25.25
2023-02-11T12:03:31.473Z,27.83
2023-02-11T12:06:12.188Z,26.50
2023-02-11T12:08:45.402Z,26.05
2023-02-11T12:11:19.052Z,26.80
2023-02-11T12:14:02.067Z,26.27
2023-02-11T12:16:38.131Z,27.02
2023-02-11T12:19:15.303Z,27.33
2023-02-11T12:21:55.599Z,30.45
2023-02-11T12:24:31.331Z,26.10
2023-02-11T12:26:59.241Z,25.80
2023-02-11T12:29:46.905Z,26.60
2023-02-11T12:32:24.036Z,28.08
2023-02-11T12:34:58.407Z,25.45
2023-02-11T12:37:29.761Z,26.55
2023-02-11T12:40:04.088Z,26.08
2023-02-11T12:43:09.419Z,26.75
2023-02-11T12:45:50.122Z,25.20
2023-02-11T12:48:43.860Z,26.10
2023-02-11T12:51:15.426Z,25.55
2023-02-11T12:53:56.114Z,26.13
2023-02-11T12:56:38.008Z,26.13
2023-02-11T12:59:14.361Z,26.83
2023-02-11T13:01:44.342Z,25.95
2023-02-11T13:04:19.167Z,25.73
2023-02-11T13:06:57.377Z,26.55
2023-02-11T13:09:30.693Z,28.83
2023-02-11T13:12:25.571Z,27.98
2023-02-11T13:14:59.448Z,28.15
2023-02-11T13:17:35.774Z,29.83
2023-02-11T13:20:23.180Z,29.60
2023-02-11T13:23:04.422Z,27.50
2023-02-11T13:25:35.604Z,26.38
2023-02-11T13:28:10.528Z,26.58
2023-02-11T13:30:46.557Z,26.27
2023-02-11T13:33:14.725Z,26.30
2023-02-11T13:35:48.881Z,26.45
2023-02-11T13:38:27.562Z,26.75
2023-02-11T13:41:00.875Z,26.65
2023-02-11T13:43:30.774Z,26.35
2023-02-11T13:46:02.849Z,27.60
2023-02-11T13:48:52.505Z,28.05
2023-02-11T13:51:35.871Z,26.40
2023-02-11T13:54:05.661Z,25.92
2023-02-11T13:56:36.135Z,25.00
2023-02-11T13:59:27.556Z,26.70
2023-02-11T14:02:24.728Z,27.40
2023-02-11T14:05:23.195Z,25.90
2023-02-11T14:08:23.890Z,28.38
2023-02-11T14:10:53.168Z,26.48
2023-02-11T14:13:30.367Z,27.45
2023-02-11T14:16:08.071Z,28.88
2023-02-11T14:18:36.179Z,27.75
2023-02-11T14:21:15.390Z,26.98
2023-02-11T14:23:46.913Z,25.83
2023-02-11T14:26:21.100Z,27.42
2023-02-11T14:28:55.698Z,30.48
2023-02-11T14:31:26.659Z,28.80
2023-02-11T14:33:56.962Z,29.30
2023-02-11T14:36:43.669Z,28.77
2023-02-11T14:39:17.860Z,26.65
2023-02-11T14:41:51.004Z,27.30
2023-02-11T14:44:20.364Z,28.60
2023-02-11T14:46:53.404Z,27.77
2023-02-11T14:49:28.050Z,28.65
2023-02-11T14:52:08.647Z,28.60
2023-02-11T14:54:36.912Z,28.25
2023-02-11T14:57:15.767Z,30.75
2023-02-11T14:59:58.926Z,26.20
2023-02-11T15:02:36.449Z,27.23
2023-02-11T15:05:21.654Z,28.15
2023-02-11T15:07:57.957Z,27.35
2023-02-11T15:10:30.979Z,28.33
2023-02-11T15:13:02.211Z,26.13
2023-02-11T15:15:31.478Z,27.40
2023-02-11T15:18:02.394Z,27.38
2023-02-11T15:20:33.489Z,28.42
2023-02-11T15:23:02.954Z,27.02
2023-02-11T15:25:34.280Z,28.40
2023-02-11T15:28:11.917Z,40.38
2023-02-11T15:30:40.961Z,28.08
2023-02-11T15:33:22.829Z,28.25
2023-02-11T15:35:51.771Z,26.50
2023-02-11T15:38:20.080Z,27.17
2023-02-11T15:41:02.092Z,28.35
2023-02-11T15:43:47.886Z,26.70
2023-02-11T15:46:17.775Z,26.05
2023-02-11T15:48:49.950Z,24.73
2023-02-11T15:51:28.690Z,27.15
2023-02-11T15:53:58.760Z,26.13
2023-02-11T15:56:30.821Z,26.85
2023-02-11T15:59:01.553Z,25.50
2023-02-11T16:01:35.540Z,27.00
2023-02-11T16:04:14.848Z,25.27
2023-02-11T16:06:47.473Z,26.77
2023-02-11T16:09:16.182Z,27.35
2023-02-11T16:11:48.122Z,32.90
2023-02-11T16:14:30.584Z,32.38
2023-02-11T16:17:04.119Z,27.77
2023-02-11T16:19:33.825Z,25.77
2023-02-11T16:22:03.661Z,27.17
2023-02-11T16:24:34.238Z,28.35
2023-02-11T16:27:08.893Z,25.75
2023-02-11T16:29:46.370Z,27.23
2023-02-11T16:32:25.684Z,23.80
2023-02-11T16:34:57.895Z,27.20
2023-02-11T16:37:29.357Z,25.80
2023-02-11T16:40:02.551Z,26.23
2023-02-11T16:42:35.832Z,26.13
2023-02-11T16:45:07.592Z,26.00
2023-02-11T16:47:40.858Z,27.75
2023-02-11T16:50:20.010Z,27.58
2023-02-11T16:52:49.197Z,27.65
2023-02-11T16:55:21.898Z,26.70
2023-02-11T16:57:51.241Z,29.10
2023-02-11T17:00:23.031Z,25.33
2023-02-11T17:03:16.255Z,25.75
2023-02-11T17:05:54.906Z,27.77
2023-02-11T17:08:27.705Z,26.75
2023-02-11T17:11:00.839Z,27.65
2023-02-11T17:13:29.997Z,26.92
2023-02-11T17:16:01.652Z,26.63
2023-02-11T17:18:31.422Z,27.13
2023-02-11T17:20:59.947Z,29.75
2023-02-11T17:23:32.993Z,29.63
2023-02-11T17:26:01.608Z,27.85
2023-02-11T17:28:32.549Z,27.80
2023-02-11T17:31:01.588Z,29.48
2023-02-11T17:33:36.255Z,29.98
2023-02-11T17:36:08.765Z,21.45
2023-02-11T17:38:38.316Z,26.40
2023-02-11T17:41:09.066Z,29.13
2023-02-11T17:43:37.413Z,28.60
2023-02-11T17:46:10.040Z,30.10
2023-02-11T17:51:22.442Z,27.83
2023-02-11T17:53:51.108Z,31.63
2023-02-11T17:56:20.227Z,30.95
2023-02-11T17:58:48.782Z,30.45
2023-02-11T18:01:17.966Z,29.52
2023-02-11T18:03:49.868Z,30.25
2023-02-11T18:06:18.045Z,31.77
2023-02-11T18:08:47.550Z,31.50
2023-02-11T18:11:16.968Z,30.88
2023-02-11T18:13:51.328Z,32.03
2023-02-11T18:16:23.013Z,36.70
2023-02-11T18:18:52.025Z,34.58
2023-02-11T18:21:24.253Z,30.85
2023-02-11T18:23:57.936Z,31.05
2023-02-11T18:26:31.658Z,31.33
2023-02-11T18:29:00.623Z,29.35
2023-02-11T18:31:31.526Z,30.25
2023-02-11T18:34:00.906Z,31.83
2023-02-11T18:36:30.473Z,29.05
2023-02-11T18:39:01.641Z,85.10
2023-02-11T18:41:32.611Z,50.78
2023-02-11T18:44:03.317Z,47.72
2023-02-11T18:46:33.560Z,41.40
2023-02-11T18:49:02.936Z,43.05
2023-02-11T18:51:32.669Z,33.85
2023-02-11T18:54:01.396Z,32.75
2023-02-11T18:56:31.945Z,32.10
2023-02-11T18:59:02.455Z,35.45
2023-02-11T19:01:34.196Z,32.13
2023-02-11T19:04:07.926Z,32.83
2023-02-11T19:06:37.460Z,34.88
2023-02-11T19:09:07.775Z,33.20
2023-02-11T19:11:50.164Z,33.38
2023-02-11T19:14:25.173Z,32.80
2023-02-11T19:17:00.288Z,34.35
2023-02-11T19:19:32.363Z,34.47
2023-02-11T19:22:03.795Z,32.28
2023-02-11T19:24:33.951Z,33.15
2023-02-11T19:27:03.596Z,40.30
2023-02-11T19:29:35.116Z,39.08
2023-02-11T19:32:05.720Z,33.58
2023-02-11T19:34:40.957Z,31.50
2023-02-11T19:37:12.141Z,35.20
2023-02-11T19:39:41.334Z,37.83
2023-02-11T19:42:09.748Z,34.35
2023-02-11T19:44:38.299Z,34.95
2023-02-11T19:47:10.368Z,37.25
2023-02-11T19:49:41.878Z,35.50
2023-02-11T19:52:12.734Z,37.33
2023-02-11T19:54:48.529Z,33.50
2023-02-11T19:57:16.665Z,36.05
2023-02-11T19:59:45.185Z,37.88
2023-02-11T20:02:13.918Z,51.95
2023-02-11T20:04:48.465Z,42.47
2023-02-11T20:07:19.068Z,36.13
2023-02-11T20:09:49.725Z,39.38
2023-02-11T20:12:20.870Z,35.05
2023-02-11T20:17:22.818Z,36.90
2023-02-11T20:19:51.130Z,35.90
2023-02-11T20:22:22.055Z,36.90
2023-02-11T20:24:53.248Z,34.50
2023-02-11T20:27:21.800Z,38.63
2023-02-11T20:29:50.282Z,34.65
2023-02-11T20:32:18.702Z,38.38
2023-02-11T20:34:50.778Z,41.13
2023-02-11T20:37:19.605Z,38.83
2023-02-11T20:39:50.983Z,37.47
2023-02-11T20:42:24.040Z,35.50
2023-02-11T20:44:52.570Z,35.03
2023-02-11T20:47:22.718Z,35.22
2023-02-11T20:49:51.158Z,35.13
2023-02-11T20:52:21.827Z,35.85
2023-02-11T20:54:50.816Z,35.83
2023-02-11T20:57:19.291Z,39.92
2023-02-11T20:59:50.106Z,36.90
2023-02-11T21:02:18.820Z,38.35
2023-02-11T21:04:47.668Z,39.78
2023-02-11T21:07:21.333Z,39.60
2023-02-11T21:09:49.779Z,37.45
2023-02-11T21:12:18.958Z,36.13
2023-02-11T21:14:49.050Z,37.88
2023-02-11T21:17:21.100Z,35.88
2023-02-11T21:19:52.376Z,38.40
2023-02-11T21:22:21.579Z,36.50
2023-02-11T21:24:50.321Z,36.50
2023-02-11T21:27:18.909Z,37.42
2023-02-11T21:29:54.580Z,35.30
2023-02-11T21:32:25.957Z,35.90
2023-02-11T21:35:02.296Z,35.10
2023-02-11T21:37:34.876Z,35.28
2023-02-11T21:40:04.490Z,34.42
2023-02-11T21:42:42.118Z,38.10
2023-02-11T21:45:10.749Z,38.95
2023-02-11T21:47:41.330Z,38.13
2023-02-11T21:50:09.912Z,33.97
2023-02-11T21:52:39.377Z,33.30
2023-02-11T21:55:10.122Z,35.15
2023-02-11T21:57:38.914Z,35.22
2023-02-11T22:00:09.846Z,35.10
2023-02-11T22:02:57.466Z,34.03
2023-02-11T22:05:27.335Z,34.05
2023-02-11T22:07:55.493Z,32.80
2023-02-11T22:10:24.109Z,33.55
2023-02-11T22:12:52.725Z,36.17
2023-02-11T22:15:21.399Z,32.58
2023-02-11T22:17:50.330Z,33.72
2023-02-11T22:20:18.856Z,32.75
2023-02-11T22:22:47.762Z,31.42
2023-02-11T22:25:20.972Z,33.72
2023-02-11T22:27:49.337Z,33.95
2023-02-11T22:30:20.271Z,33.55
2023-02-11T22:33:04.144Z,33.72
2023-02-11T22:35:34.447Z,32.75
2023-02-11T22:38:07.843Z,35.05
2023-02-11T22:40:42.091Z,34.53
2023-02-11T22:43:10.735Z,34.13
2023-02-11T22:45:38.999Z,40.83
2023-02-11T22:48:07.839Z,37.47
2023-02-11T22:50:36.110Z,36.05
2023-02-11T22:53:04.970Z,38.97
2023-02-11T22:55:37.311Z,40.40
2023-02-11T22:58:06.178Z,39.40
2023-02-11T23:00:37.854Z,36.70
2023-02-11T23:03:17.355Z,35.53
2023-02-11T23:05:46.294Z,34.42
2023-02-11T23:08:14.704Z,35.88
2023-02-11T23:10:45.379Z,37.60
2023-02-11T23:13:14.568Z,39.30
2023-02-11T23:15:45.712Z,37.20
2023-02-11T23:18:21.849Z,34.17
2023-02-11T23:20:54.001Z,35.08
2023-02-11T23:23:24.982Z,35.17
2023-02-11T23:25:54.782Z,32.00
2023-02-11T23:28:23.724Z,34.85
2023-02-11T23:30:52.871Z,33.17
2023-02-11T23:33:27.009Z,32.80
2023-02-11T23:35:55.800Z,31.92
2023-02-11T23:38:24.599Z,32.78
2023-02-11T23:40:57.054Z,33.42
2023-02-11T23:43:25.433Z,36.28
2023-02-11T23:45:54.136Z,32.92
2023-02-11T23:48:25.074Z,34.38
2023-02-11T23:50:53.523Z,32.80
2023-02-11T23:53:26.610Z,31.75
2023-02-11T23:55:56.795Z,33.60
2023-02-11T23:58:25.528Z,32.75
